首页
METAR-TAF:

METAR-TAF

机场 :

Northolt, 英格兰

纬度: 51-33N, 经度: 000-25W, 海拔: 38米

当前天气观测

该预报发布于1小时和29分钟前的00:50 UTC
风速4节,风向
温度 5°C
湿度 81%
气压 1027 hPa
能见度10公里或以上

METAR: EGWU 070050Z AUTO 36004KT 9999 // NCD 05/02 Q1027

时间: 03:19 (02:19 UTC)

预报

该预报发布于9小时和51分钟前的16:28 UTC
预报有效从06日的 18点(UTC)到 07日的 12点(UTC)
风速8节,风向西转西北
能见度10公里或以上
1500米以下无云,无积雨云
几率 30%
从 07日的 04点(UTC)到 07日的 07点(UTC)
能見度: 5000
轻雾

TAF: EGWU 061628Z 0618/0712 29008KT CAVOK PROB30 0704/0707 5000 BR

超过4000个机场的气象观测和天气预报(METAR&TAF报告)。

可查询的气象台以黄色和红色小点在地图上表示。

将鼠标移到小点上方,可查看气象台名称。

然后点击查看天气观测和预报。

如需切换地图:点击带黑十字的绿色按钮放大地图;点击带横线的绿色按钮缩小地图;或者点击绿色箭头查看邻近地区的地图。


METAR-TAF: